Time;durP1;ratioP1;P1;durP2;ratioP2;P2;SDS_P1;SDS_P2;PMS_P1;PMS_P2;Temp;Humidity;BMP_temperature;BMP_pressure;BME280_temperature;BME280_humidity;BME280_pressure;Samples;Min_cycle;Max_cycle;Signal;HPM_P1;HPM_P2
2022/04/17 00:01:08;;;;;;;15.93;9.73;;;3.50;99.90;;;;;;5073242;28;20206;-73
2022/04/17 00:03:35;;;;;;;21.80;12.20;;;3.60;99.90;;;;;;5069962;28;20650;-73
2022/04/17 00:06:02;;;;;;;15.57;9.80;;;3.60;99.90;;;;;;5071605;28;20202;-74
2022/04/17 00:08:29;;;;;;;15.63;9.63;;;3.50;99.90;;;;;;5072858;28;20202;-74
2022/04/17 00:10:56;;;;;;;17.20;10.53;;;3.50;99.90;;;;;;5072104;28;20558;-74
2022/04/17 00:13:23;;;;;;;14.70;10.13;;;3.50;99.90;;;;;;5061194;28;20206;-74
2022/04/17 00:15:51;;;;;;;14.57;9.60;;;3.40;99.90;;;;;;5061788;28;20205;-74
2022/04/17 00:18:19;;;;;;;14.77;9.60;;;3.20;99.90;;;;;;5073239;28;20234;-74
2022/04/17 00:20:46;;;;;;;12.83;8.97;;;3.10;99.90;;;;;;5060722;28;20201;-74
2022/04/17 00:23:12;;;;;;;16.73;10.13;;;3.00;99.90;;;;;;5057858;28;20209;-74
2022/04/17 00:25:39;;;;;;;14.53;9.47;;;3.20;99.90;;;;;;5062346;28;20210;-74
2022/04/17 00:28:07;;;;;;;15.87;9.30;;;3.10;99.90;;;;;;5069016;28;20198;-74
2022/04/17 00:30:33;;;;;;;14.70;9.83;;;3.10;99.90;;;;;;5065316;28;20209;-74
2022/04/17 00:33:00;;;;;;;17.57;9.57;;;2.90;99.90;;;;;;5072751;28;20225;-74
2022/04/17 00:35:28;;;;;;;17.40;10.33;;;3.20;99.90;;;;;;5073318;28;20202;-74
2022/04/17 00:37:55;;;;;;;15.30;10.10;;;3.20;99.90;;;;;;5072161;28;20245;-74
2022/04/17 00:40:22;;;;;;;18.40;11.27;;;3.10;99.90;;;;;;5072205;28;20256;-74
2022/04/17 00:42:49;;;;;;;18.07;11.00;;;3.00;99.90;;;;;;5073147;28;20209;-74
2022/04/17 00:45:16;;;;;;;19.00;10.80;;;2.80;99.90;;;;;;5073204;28;20213;-74
2022/04/17 00:47:43;;;;;;;17.50;10.70;;;2.70;99.90;;;;;;5072846;28;20205;-74
2022/04/17 00:50:11;;;;;;;18.13;11.73;;;2.80;99.90;;;;;;5072751;28;20210;-74
2022/04/17 00:52:39;;;;;;;17.77;10.80;;;2.70;99.90;;;;;;5072427;28;20577;-74
2022/04/17 00:55:08;;;;;;;18.53;11.97;;;2.90;99.90;;;;;;5072629;28;20317;-74
2022/04/17 00:57:35;;;;;;;19.67;12.37;;;2.70;99.90;;;;;;5072559;28;20198;-74
2022/04/17 01:00:03;;;;;;;18.63;11.93;;;2.80;99.90;;;;;;5072478;28;20206;-74
2022/04/17 01:02:30;;;;;;;23.97;13.57;;;2.70;99.90;;;;;;5071457;28;20206;-74
2022/04/17 01:04:57;;;;;;;24.10;14.00;;;2.70;99.90;;;;;;5072919;28;20543;-74
2022/04/17 01:07:24;;;;;;;24.20;14.73;;;3.00;99.90;;;;;;5071863;28;20204;-74
2022/04/17 01:09:52;;;;;;;19.13;12.23;;;2.70;99.90;;;;;;5072069;28;20710;-74
2022/04/17 01:12:20;;;;;;;22.63;13.53;;;2.80;99.90;;;;;;5071690;28;20597;-74
2022/04/17 01:14:48;;;;;;;22.70;12.30;;;2.80;99.90;;;;;;5071111;28;20213;-74
2022/04/17 01:17:15;;;;;;;21.77;13.40;;;3.00;99.90;;;;;;5067986;28;20202;-74
2022/04/17 01:19:42;;;;;;;20.60;12.90;;;2.90;99.90;;;;;;5069548;28;20214;-74
2022/04/17 01:22:12;;;;;;;22.57;13.40;;;3.00;99.90;;;;;;5070089;28;20566;-74
2022/04/17 01:27:25;;;;;;;20.83;12.40;;;2.90;99.90;;;;;;5068742;28;20202;-74
2022/04/17 01:29:53;;;;;;;19.37;11.83;;;2.50;99.90;;;;;;5054170;28;20197;-74
2022/04/17 01:32:20;;;;;;;20.07;12.47;;;2.70;99.90;;;;;;5059300;28;20210;-74
2022/04/17 01:34:47;;;;;;;21.23;12.50;;;2.50;99.90;;;;;;5071420;28;20198;-74
2022/04/17 01:37:17;;;;;;;21.40;12.37;;;2.50;99.90;;;;;;5071031;28;20198;-73
2022/04/17 01:39:44;;;;;;;21.13;13.10;;;2.60;99.90;;;;;;5071266;28;20570;-74
2022/04/17 01:42:12;;;;;;;18.23;12.60;;;3.00;99.90;;;;;;5071735;28;20198;-74
2022/04/17 01:44:39;;;;;;;20.43;12.20;;;2.90;99.90;;;;;;5070777;28;20214;-74
2022/04/17 01:47:06;;;;;;;20.43;12.87;;;2.70;99.90;;;;;;5072029;28;20565;-74
2022/04/17 01:49:33;;;;;;;20.03;11.93;;;2.70;99.90;;;;;;5071323;28;20195;-74
2022/04/17 01:52:00;;;;;;;17.80;11.33;;;2.60;99.90;;;;;;5071925;28;20202;-74
2022/04/17 01:54:29;;;;;;;19.43;12.40;;;2.40;99.90;;;;;;5072142;28;20305;-74
2022/04/17 01:56:57;;;;;;;20.63;12.13;;;2.40;99.90;;;;;;5070383;28;20221;-74
2022/04/17 01:59:25;;;;;;;19.47;11.43;;;2.30;99.90;;;;;;5070258;28;20217;-74
2022/04/17 02:01:52;;;;;;;18.67;12.17;;;2.30;99.90;;;;;;5071188;28;20340;-74
2022/04/17 02:04:19;;;;;;;19.23;12.33;;;2.20;99.90;;;;;;5071993;28;20226;-74
2022/04/17 02:06:47;;;;;;;18.43;11.20;;;2.30;99.90;;;;;;5075550;28;20679;-74
2022/04/17 02:09:15;;;;;;;18.87;11.83;;;2.20;99.90;;;;;;5075589;28;20240;-74
2022/04/17 02:11:45;;;;;;;18.53;11.80;;;2.00;99.90;;;;;;5076305;28;20190;-74
2022/04/17 02:14:12;;;;;;;19.70;12.27;;;2.20;99.90;;;;;;5075095;28;20198;-74
2022/04/17 02:16:39;;;;;;;21.27;11.57;;;2.30;99.90;;;;;;5075830;28;20211;-74
2022/04/17 02:19:06;;;;;;;18.53;11.53;;;2.50;99.90;;;;;;5074714;28;20232;-74
2022/04/17 02:21:33;;;;;;;22.27;13.13;;;2.40;99.90;;;;;;5076002;28;20206;-74
2022/04/17 02:24:01;;;;;;;22.03;13.50;;;2.30;99.90;;;;;;5075104;28;20210;-74
2022/04/17 02:26:28;;;;;;;21.67;13.63;;;2.50;99.90;;;;;;5075717;28;20251;-74
2022/04/17 02:28:57;;;;;;;23.07;13.23;;;2.60;99.90;;;;;;5074629;28;20202;-74
2022/04/17 02:31:25;;;;;;;21.50;13.17;;;2.70;99.90;;;;;;5075884;28;20284;-74
2022/04/17 02:33:53;;;;;;;20.33;12.50;;;2.30;99.90;;;;;;5074791;28;20206;-74
2022/04/17 02:36:20;;;;;;;19.37;11.80;;;2.30;99.90;;;;;;5065269;28;20430;-74
2022/04/17 02:38:55;;;;;;;17.67;11.20;;;2.00;99.90;;;;;;5073231;28;20214;-74
2022/04/17 02:41:22;;;;;;;20.13;11.97;;;1.90;99.90;;;;;;5073961;28;20558;-74
2022/04/17 02:43:48;;;;;;;19.87;12.43;;;1.90;99.90;;;;;;5066838;28;20207;-74
2022/04/17 02:47:42;;;;;;;19.77;11.57;;;2.00;99.90;;;;;;5070710;28;20209;-74
2022/04/17 02:49:03;;;;;;;18.77;12.10;;;2.00;99.90;;;;;;5074651;28;20599;-74
2022/04/17 02:51:30;;;;;;;20.67;11.67;;;1.80;99.90;;;;;;5074229;28;20293;-74
2022/04/17 02:53:57;;;;;;;18.97;11.87;;;1.70;99.90;;;;;;5074647;28;20584;-74
2022/04/17 02:56:23;;;;;;;20.60;11.63;;;1.60;99.90;;;;;;5075051;28;20208;-74
2022/04/17 02:58:54;;;;;;;18.13;11.03;;;1.60;99.90;;;;;;5074109;28;20244;-74
2022/04/17 03:06:51;;;;;;;20.17;12.73;;;1.40;99.90;;;;;;5074062;28;20276;-74
2022/04/17 03:09:18;;;;;;;18.93;11.43;;;1.60;99.90;;;;;;5074552;28;20243;-74
2022/04/17 03:11:45;;;;;;;18.00;11.63;;;1.80;99.90;;;;;;5074431;28;20466;-74
2022/04/17 03:14:11;;;;;;;20.93;12.10;;;1.70;99.90;;;;;;5074581;28;20246;-74
2022/04/17 03:16:40;;;;;;;21.70;11.57;;;1.50;99.90;;;;;;5073884;28;20203;-74
2022/04/17 03:19:07;;;;;;;18.23;11.63;;;1.30;99.90;;;;;;5074320;28;20222;-74
2022/04/17 03:21:34;;;;;;;18.60;11.63;;;1.40;99.90;;;;;;5073806;28;20653;-74
2022/04/17 03:24:01;;;;;;;20.93;12.20;;;1.40;99.90;;;;;;5074645;28;20216;-74
2022/04/17 03:26:28;;;;;;;21.20;13.43;;;1.40;99.90;;;;;;5074158;28;20660;-71
2022/04/17 03:28:55;;;;;;;19.77;12.87;;;1.50;99.90;;;;;;5071860;28;20201;-71
2022/04/17 03:31:22;;;;;;;22.17;11.70;;;1.40;99.90;;;;;;5073534;28;20210;-71
2022/04/17 03:33:50;;;;;;;20.53;12.77;;;1.60;99.90;;;;;;5073733;28;20202;-71
2022/04/17 03:36:17;;;;;;;20.93;12.67;;;1.50;99.90;;;;;;5071813;28;20608;-71
2022/04/17 03:38:44;;;;;;;19.63;12.83;;;1.60;99.90;;;;;;5066277;28;20596;-71
2022/04/17 03:41:11;;;;;;;21.23;13.33;;;1.50;99.90;;;;;;5073623;28;20260;-71
2022/04/17 03:43:39;;;;;;;20.50;12.83;;;1.50;99.90;;;;;;5073360;28;20194;-71
2022/04/17 03:46:06;;;;;;;20.30;13.30;;;1.50;99.90;;;;;;5071726;28;20654;-71
2022/04/17 03:48:33;;;;;;;19.00;12.53;;;1.60;99.90;;;;;;5072765;28;20251;-71
2022/04/17 03:51:01;;;;;;;20.13;13.00;;;1.30;99.90;;;;;;5072157;28;20256;-71
2022/04/17 03:53:28;;;;;;;20.93;12.17;;;1.30;99.90;;;;;;5071208;28;20198;-71
2022/04/17 03:55:56;;;;;;;22.50;12.73;;;1.30;99.90;;;;;;5072897;28;20194;-71
2022/04/17 03:58:22;;;;;;;21.83;12.37;;;1.40;99.90;;;;;;5072993;28;20238;-71
2022/04/17 04:00:50;;;;;;;22.93;13.00;;;1.50;99.90;;;;;;5057020;28;20553;-71
2022/04/17 04:03:17;;;;;;;22.20;13.27;;;1.40;99.90;;;;;;5056987;28;20213;-71
2022/04/17 04:05:45;;;;;;;21.63;12.83;;;1.20;99.90;;;;;;5072318;28;20209;-71
2022/04/17 04:08:13;;;;;;;18.23;11.67;;;1.20;99.90;;;;;;5071490;28;20205;-71
2022/04/17 04:10:40;;;;;;;19.60;12.67;;;1.10;99.90;;;;;;5072647;28;20260;-71
2022/04/17 04:13:07;;;;;;;20.73;12.30;;;1.20;99.90;;;;;;5071177;28;20644;-71
2022/04/17 04:15:34;;;;;;;20.83;11.30;;;1.30;99.90;;;;;;5072021;28;20599;-71
2022/04/17 04:18:01;;;;;;;19.97;12.23;;;1.20;99.90;;;;;;5072653;28;20199;-71
2022/04/17 04:20:28;;;;;;;20.83;12.13;;;1.20;99.90;;;;;;5071139;28;20225;-71
2022/04/17 04:22:57;;;;;;;19.57;11.37;;;1.30;99.90;;;;;;5072767;28;20256;-71
2022/04/17 04:25:25;;;;;;;21.17;12.70;;;1.20;99.90;;;;;;5070725;28;20229;-71
2022/04/17 04:30:42;;;;;;;21.87;12.63;;;1.20;99.90;;;;;;5042572;28;20264;-71
2022/04/17 04:33:09;;;;;;;21.17;12.90;;;1.20;99.90;;;;;;5072492;28;20683;-71
2022/04/17 04:35:36;;;;;;;20.20;12.63;;;1.60;99.90;;;;;;5071844;28;20206;-71
2022/04/17 04:38:03;;;;;;;22.00;13.93;;;2.20;99.90;;;;;;5070701;28;20202;-71
2022/04/17 04:40:32;;;;;;;19.30;13.30;;;2.80;99.90;;;;;;5062841;28;20597;-71
2022/04/17 04:42:59;;;;;;;23.23;13.87;;;3.10;99.90;;;;;;5059522;28;20202;-71
2022/04/17 04:48:11;;;;;;;21.50;14.07;;;3.80;99.90;;;;;;5068498;28;20769;-71
2022/04/17 04:50:38;;;;;;;25.30;14.17;;;4.30;99.90;;;;;;5051389;28;20542;-71
2022/04/17 04:53:06;;;;;;;22.57;14.13;;;4.20;99.90;;;;;;5050835;28;20195;-71
2022/04/17 04:55:34;;;;;;;21.83;14.07;;;3.50;99.90;;;;;;5069842;28;20263;-71
2022/04/17 04:58:01;;;;;;;23.40;14.47;;;3.00;99.90;;;;;;5069477;28;20206;-71
2022/04/17 05:00:29;;;;;;;21.70;13.30;;;3.90;99.90;;;;;;5071337;28;20229;-72
2022/04/17 05:02:55;;;;;;;21.30;13.13;;;4.80;99.90;;;;;;5066695;28;20210;-72
2022/04/17 05:05:22;;;;;;;21.77;13.77;;;6.00;99.90;;;;;;5050722;28;20210;-72
2022/04/17 05:07:49;;;;;;;20.30;12.83;;;6.30;99.90;;;;;;5051061;28;20195;-71
2022/04/17 05:10:17;;;;;;;19.00;12.43;;;6.30;99.90;;;;;;5070950;28;20206;-71
2022/04/17 05:12:45;;;;;;;23.27;13.23;;;6.10;99.90;;;;;;5069692;28;20722;-71
2022/04/17 05:15:12;;;;;;;19.97;12.73;;;6.20;99.90;;;;;;5070431;28;20206;-72
2022/04/17 05:17:39;;;;;;;19.83;12.27;;;5.90;99.90;;;;;;5071378;28;20221;-71
2022/04/17 05:20:07;;;;;;;18.63;12.20;;;5.60;99.90;;;;;;5069856;28;20225;-72
2022/04/17 05:22:34;;;;;;;20.27;13.00;;;6.10;99.90;;;;;;5058934;28;20661;-72
2022/04/17 05:25:01;;;;;;;24.00;13.27;;;6.50;99.90;;;;;;5050520;28;20218;-72
2022/04/17 05:27:28;;;;;;;22.03;14.23;;;6.10;99.90;;;;;;5071136;28;20206;-71
2022/04/17 05:29:56;;;;;;;21.90;13.27;;;6.10;99.90;;;;;;5069078;28;20608;-71
2022/04/17 05:32:24;;;;;;;22.90;13.57;;;5.80;99.90;;;;;;5071419;28;20612;-72
2022/04/17 05:34:51;;;;;;;22.30;13.63;;;5.50;99.90;;;;;;5057108;28;20211;-71
2022/04/17 05:37:18;;;;;;;23.60;13.50;;;5.40;99.90;;;;;;5050136;28;20248;-72
2022/04/17 05:39:45;;;;;;;21.97;12.87;;;5.50;99.90;;;;;;5062477;28;20267;-72
2022/04/17 05:42:13;;;;;;;18.60;12.67;;;5.60;99.90;;;;;;5070591;28;20252;-72
2022/04/17 05:44:41;;;;;;;20.53;13.27;;;6.20;99.90;;;;;;5069656;28;20202;-72
2022/04/17 05:47:10;;;;;;;19.80;12.33;;;6.00;99.90;;;;;;5071678;28;20206;-72
2022/04/17 05:49:37;;;;;;;21.27;13.27;;;5.20;99.90;;;;;;5069636;28;20198;-72
2022/04/17 05:52:04;;;;;;;22.60;13.23;;;4.90;99.90;;;;;;5071119;28;20611;-71
2022/04/17 05:54:32;;;;;;;22.50;13.30;;;5.00;99.90;;;;;;5071262;28;20210;-72
2022/04/17 05:56:58;;;;;;;20.47;13.80;;;6.20;99.90;;;;;;5070037;28;20199;-72
2022/04/17 05:59:25;;;;;;;21.83;13.20;;;6.80;99.90;;;;;;5068667;28;20226;-72
2022/04/17 06:01:52;;;;;;;20.03;12.50;;;6.20;99.90;;;;;;5069346;28;20234;-72
2022/04/17 06:04:21;;;;;;;20.70;13.50;;;6.00;99.90;;;;;;5071202;28;20656;-71
2022/04/17 06:06:48;;;;;;;20.73;12.57;;;6.50;99.90;;;;;;5070719;28;20261;-72
2022/04/17 06:09:15;;;;;;;20.97;13.63;;;6.10;99.90;;;;;;5068476;28;20237;-72
2022/04/17 06:11:42;;;;;;;22.33;14.40;;;5.80;99.90;;;;;;5059560;28;20226;-71
2022/04/17 06:14:09;;;;;;;21.17;13.87;;;5.70;99.90;;;;;;5070624;28;20198;-71
2022/04/17 06:16:36;;;;;;;24.43;15.20;;;5.80;99.90;;;;;;5069202;28;20198;-72
2022/04/17 06:19:05;;;;;;;25.57;13.70;;;6.60;99.90;;;;;;5068856;28;20656;-72
2022/04/17 06:21:33;;;;;;;24.87;14.73;;;7.30;99.90;;;;;;5070809;28;20256;-72
2022/04/17 06:24:00;;;;;;;22.00;13.67;;;8.50;99.90;;;;;;5055020;28;20203;-71
2022/04/17 06:26:27;;;;;;;21.50;12.97;;;8.30;99.90;;;;;;5063282;28;20194;-72
2022/04/17 06:28:54;;;;;;;20.07;13.27;;;8.60;98.20;;;;;;5055611;28;20239;-72
2022/04/17 06:31:21;;;;;;;19.03;12.90;;;8.80;95.00;;;;;;5050342;28;20202;-72
2022/04/17 06:33:48;;;;;;;20.63;12.13;;;8.50;98.50;;;;;;5058225;28;20265;-72
2022/04/17 06:36:15;;;;;;;18.77;12.23;;;8.30;99.30;;;;;;5057578;28;20509;-72
2022/04/17 06:38:44;;;;;;;18.53;11.63;;;8.70;99.40;;;;;;5062253;28;20247;-72
2022/04/17 06:41:11;;;;;;;18.63;11.90;;;8.50;98.20;;;;;;5069005;28;20631;-71
2022/04/17 06:43:37;;;;;;;19.00;11.93;;;8.30;95.40;;;;;;5060593;28;20616;-72
2022/04/17 06:46:04;;;;;;;17.77;10.77;;;8.60;91.10;;;;;;5049977;28;20203;-71
2022/04/17 06:48:31;;;;;;;17.80;10.87;;;8.40;92.10;;;;;;5067422;28;20202;-72
2022/04/17 06:50:58;;;;;;;17.40;11.20;;;8.30;92.70;;;;;;5071241;28;20206;-72
2022/04/17 06:53:26;;;;;;;16.87;10.37;;;8.20;91.00;;;;;;5072622;28;20238;-73
2022/04/17 06:55:54;;;;;;;15.80;10.33;;;8.30;88.20;;;;;;5063304;28;20200;-73
2022/04/17 06:58:21;;;;;;;16.63;11.03;;;7.40;95.10;;;;;;5051789;28;20515;-72
2022/04/17 07:00:50;;;;;;;17.80;11.13;;;7.50;97.20;;;;;;5053497;28;20771;-72
2022/04/17 07:03:17;;;;;;;15.33;11.40;;;8.00;99.90;;;;;;5058966;28;20649;-72
2022/04/17 07:05:45;;;;;;;15.50;10.50;;;7.90;98.50;;;;;;5072299;28;20203;-72
2022/04/17 07:08:12;;;;;;;14.93;9.37;;;8.40;95.50;;;;;;5066346;28;20716;-72
2022/04/17 07:10:40;;;;;;;11.87;8.37;;;8.60;92.00;;;;;;5067915;28;20199;-72
2022/04/17 07:13:11;;;;;;;10.23;7.23;;;8.30;82.90;;;;;;5054269;28;20427;-72
2022/04/17 07:15:38;;;;;;;12.27;7.10;;;8.60;70.60;;;;;;5053108;28;20199;-72
2022/04/17 07:18:05;;;;;;;11.87;8.13;;;8.70;64.60;;;;;;5054055;28;20234;-72
2022/04/17 07:20:34;;;;;;;11.47;7.70;;;8.80;71.00;;;;;;5055475;28;20235;-72
2022/04/17 07:23:01;;;;;;;14.13;8.77;;;9.00;70.00;;;;;;5053466;28;20206;-72
2022/04/17 07:25:28;;;;;;;18.47;9.53;;;9.00;65.40;;;;;;5063092;28;20547;-72
2022/04/17 07:27:55;;;;;;;16.37;9.00;;;8.70;65.10;;;;;;5071151;28;20827;-72
2022/04/17 07:30:25;;;;;;;14.33;8.40;;;8.80;69.50;;;;;;5073095;28;20786;-72
2022/04/17 07:32:54;;;;;;;13.70;8.23;;;8.90;66.70;;;;;;5072816;28;20214;-72
2022/04/17 07:35:22;;;;;;;12.23;7.50;;;9.80;66.10;;;;;;5072148;28;20320;-72
2022/04/17 07:37:50;;;;;;;9.87;6.63;;;10.00;67.50;;;;;;5061028;28;20284;-72
2022/04/17 07:40:19;;;;;;;11.07;6.50;;;11.30;56.30;;;;;;5069392;28;20215;-73
2022/04/17 07:42:47;;;;;;;9.60;6.00;;;11.40;44.90;;;;;;5055687;28;20202;-72
2022/04/17 07:45:15;;;;;;;10.00;6.33;;;11.30;34.90;;;;;;5064371;28;20259;-72
2022/04/17 07:47:43;;;;;;;11.03;6.53;;;10.40;37.20;;;;;;5068893;28;20628;-72
2022/04/17 07:50:12;;;;;;;9.63;6.17;;;10.20;40.80;;;;;;5054977;28;20242;-72
2022/04/17 07:52:41;;;;;;;11.53;6.60;;;10.30;45.40;;;;;;5070101;28;20450;-72
2022/04/17 07:55:10;;;;;;;11.73;6.40;;;10.10;41.20;;;;;;5067390;28;20649;-72
2022/04/17 08:00:19;;;;;;;8.03;5.87;;;10.00;40.40;;;;;;5062346;28;20583;-72
2022/04/17 08:02:53;;;;;;;8.73;5.63;;;10.30;38.80;;;;;;5069302;28;20256;-72
2022/04/17 08:05:21;;;;;;;8.33;5.50;;;10.00;34.70;;;;;;5064123;28;20217;-72
2022/04/17 08:07:48;;;;;;;10.17;6.70;;;10.20;37.30;;;;;;5068545;28;20214;-72
2022/04/17 08:10:15;;;;;;;9.30;6.67;;;10.40;45.00;;;;;;5063982;28;20650;-72
2022/04/17 08:12:42;;;;;;;11.63;6.70;;;10.20;54.20;;;;;;5068590;28;20640;-74
2022/04/17 08:15:10;;;;;;;10.03;6.10;;;10.30;50.30;;;;;;5065381;28;20331;-74
2022/04/17 08:17:37;;;;;;;7.80;6.30;;;10.10;43.00;;;;;;5050222;28;20248;-72
2022/04/17 08:20:07;;;;;;;9.30;6.43;;;10.20;49.70;;;;;;5062312;28;20226;-72
2022/04/17 08:22:34;;;;;;;8.57;6.30;;;10.30;47.40;;;;;;5069498;28;20275;-72
2022/04/17 08:25:01;;;;;;;9.87;6.73;;;10.40;44.20;;;;;;5067591;28;20203;-72
2022/04/17 08:27:28;;;;;;;13.37;7.73;;;10.00;44.40;;;;;;5065970;28;20260;-72
2022/04/17 08:29:55;;;;;;;10.97;8.03;;;10.00;50.70;;;;;;5060496;28;20206;-72
2022/04/17 08:32:22;;;;;;;9.87;7.13;;;10.20;52.50;;;;;;5065718;28;20210;-72
2022/04/17 08:34:49;;;;;;;12.37;7.30;;;10.50;47.80;;;;;;5062159;28;20207;-72
2022/04/17 08:37:17;;;;;;;8.80;6.77;;;10.70;48.00;;;;;;5062199;28;20222;-72
2022/04/17 08:39:44;;;;;;;10.70;6.50;;;10.90;40.70;;;;;;5066440;28;20587;-72
2022/04/17 08:42:12;;;;;;;10.87;6.17;;;10.70;38.50;;;;;;5064530;28;20708;-72
2022/04/17 08:44:39;;;;;;;8.53;5.80;;;10.90;36.60;;;;;;5066319;28;20230;-72
2022/04/17 08:47:08;;;;;;;8.83;6.03;;;11.20;34.60;;;;;;5067123;28;20295;-72
2022/04/17 08:49:37;;;;;;;7.00;4.77;;;11.30;29.30;;;;;;5055603;28;20203;-72
2022/04/17 08:52:08;;;;;;;6.40;3.90;;;11.20;19.30;;;;;;5066378;28;20673;-72
2022/04/17 08:54:40;;;;;;;7.03;4.17;;;11.60;11.40;;;;;;5063211;28;20206;-72
2022/04/17 08:57:07;;;;;;;5.53;4.00;;;11.70;14.10;;;;;;5048016;28;20203;-72
2022/04/17 08:59:34;;;;;;;5.27;4.30;;;11.90;8.90;;;;;;5058460;28;20323;-73
2022/04/17 09:02:07;;;;;;;6.30;4.30;;;11.80;10.40;;;;;;5066654;28;20315;-72
2022/04/17 09:04:35;;;;;;;6.63;4.63;;;11.80;11.30;;;;;;5051085;28;20218;-72
2022/04/17 09:07:02;;;;;;;8.23;4.80;;;12.00;15.70;;;;;;5069680;28;20252;-72
2022/04/17 09:09:29;;;;;;;7.80;5.23;;;12.00;15.20;;;;;;5063585;28;20206;-72
2022/04/17 09:11:57;;;;;;;7.30;4.60;;;12.00;12.90;;;;;;5055924;28;20322;-72
2022/04/17 09:14:24;;;;;;;6.53;4.40;;;12.50;11.40;;;;;;5065993;28;20210;-72
2022/04/17 09:16:52;;;;;;;5.87;4.77;;;12.60;6.50;;;;;;5062641;28;20199;-72
2022/04/17 09:19:20;;;;;;;7.53;5.27;;;12.90;7.50;;;;;;5067495;28;20206;-72
2022/04/17 09:21:54;;;;;;;7.50;5.17;;;13.20;13.20;;;;;;5056453;28;20233;-72
2022/04/17 09:24:23;;;;;;;7.80;5.10;;;13.60;4.80;;;;;;5035603;28;20217;-72
2022/04/17 09:26:52;;;;;;;8.87;4.97;;;13.10;8.90;;;;;;5053420;28;20892;-72
2022/04/17 09:29:22;;;;;;;6.57;4.73;;;13.60;12.40;;;;;;5047983;28;20703;-72
2022/04/17 09:31:57;;;;;;;8.20;5.30;;;13.30;8.30;;;;;;5053990;28;20204;-72
2022/04/17 09:34:24;;;;;;;5.87;4.77;;;13.20;7.90;;;;;;5064623;28;20214;-72
2022/04/17 09:36:56;;;;;;;6.37;4.20;;;13.90;7.40;;;;;;5055523;28;20669;-72
2022/04/17 09:39:23;;;;;;;5.10;3.07;;;14.60;1.00;;;;;;5053471;28;20673;-72
2022/04/17 09:41:57;;;;;;;4.33;2.93;;;14.70;1.00;;;;;;5054658;28;20230;-72
2022/04/17 09:44:45;;;;;;;4.70;3.60;;;14.40;1.00;;;;;;5058833;28;20235;-72
2022/04/17 09:47:16;;;;;;;6.70;4.07;;;13.70;1.00;;;;;;5043441;28;20210;-72
2022/04/17 09:49:55;;;;;;;4.73;3.63;;;13.90;1.00;;;;;;5054931;28;20209;-72
2022/04/17 09:52:23;;;;;;;3.63;3.00;;;13.80;1.00;;;;;;5051322;28;20673;-72
2022/04/17 09:54:52;;;;;;;5.63;3.93;;;14.10;1.00;;;;;;5057181;28;20232;-72
2022/04/17 09:57:20;;;;;;;4.30;3.40;;;14.20;1.00;;;;;;5052216;28;20665;-72
2022/04/17 09:59:50;;;;;;;5.00;3.70;;;14.20;1.00;;;;;;5056378;28;20668;-72
2022/04/17 10:02:19;;;;;;;5.20;3.33;;;14.10;1.00;;;;;;5053512;28;20230;-72
2022/04/17 10:04:46;;;;;;;4.33;3.13;;;13.60;1.00;;;;;;5054765;28;20276;-72
2022/04/17 10:07:14;;;;;;;4.77;3.37;;;14.10;1.00;;;;;;5055928;28;20510;-72
2022/04/17 10:09:43;;;;;;;3.80;3.37;;;14.30;1.00;;;;;;5057592;28;20241;-72
2022/04/17 10:12:14;;;;;;;4.57;3.20;;;14.20;1.00;;;;;;5061200;28;20213;-72
2022/04/17 10:14:42;;;;;;;3.90;2.90;;;14.40;1.00;;;;;;5058450;28;20694;-71
2022/04/17 10:17:11;;;;;;;5.47;3.17;;;13.90;1.00;;;;;;5060662;28;20209;-72
2022/04/17 10:19:41;;;;;;;4.50;3.10;;;14.10;1.00;;;;;;5056083;28;20202;-71
2022/04/17 10:22:10;;;;;;;5.07;3.23;;;14.00;1.00;;;;;;5061132;28;20261;-71
2022/04/17 10:24:39;;;;;;;4.10;2.50;;;14.20;1.00;;;;;;5060341;28;20767;-71
2022/04/17 10:27:08;;;;;;;5.37;2.80;;;14.80;1.00;;;;;;5061190;28;20297;-71
2022/04/17 10:29:41;;;;;;;2.80;2.40;;;14.60;1.00;;;;;;5065460;28;20210;-71
2022/04/17 10:32:42;;;;;;;4.47;2.80;;;14.90;1.00;;;;;;5067358;28;20206;-71
2022/04/17 10:35:32;;;;;;;4.27;3.10;;;14.40;1.00;;;;;;5058172;28;20198;-71
2022/04/17 10:38:23;;;;;;;4.53;2.53;;;14.40;1.00;;;;;;5061664;28;20260;-72
2022/04/17 10:40:54;;;;;;;3.43;2.10;;;14.30;1.00;;;;;;5064015;28;20223;-72
2022/04/17 10:43:21;;;;;;;2.10;1.93;;;14.10;1.00;;;;;;5062894;28;20231;-72
2022/04/17 10:46:13;;;;;;;2.67;2.10;;;13.80;1.00;;;;;;5061128;28;20237;-72
2022/04/17 10:48:49;;;;;;;1.67;1.57;;;14.80;1.00;;;;;;5059045;28;20303;-72
2022/04/17 10:51:21;;;;;;;1.70;1.60;;;14.60;1.00;;;;;;5064157;28;20213;-72
2022/04/17 10:53:53;;;;;;;1.40;1.30;;;14.40;1.00;;;;;;5066241;28;20260;-72
2022/04/17 10:56:21;;;;;;;2.90;1.40;;;14.60;1.00;;;;;;5061738;28;20754;-71
2022/04/17 10:58:52;;;;;;;1.60;1.30;;;14.90;1.00;;;;;;5065058;28;20206;-72
2022/04/17 11:01:58;;;;;;;1.50;1.20;;;14.60;1.00;;;;;;5060265;28;20246;-72
2022/04/17 11:04:28;;;;;;;2.47;1.00;;;14.50;1.00;;;;;;5046845;28;20260;-71
2022/04/17 11:07:21;;;;;;;2.63;1.40;;;14.40;1.00;;;;;;5059690;28;20454;-72
2022/04/17 11:09:48;;;;;;;2.73;1.20;;;14.60;1.00;;;;;;5064135;28;20621;-72
2022/04/17 11:12:26;;;;;;;1.10;1.00;;;14.70;1.00;;;;;;5067676;28;20206;-72
2022/04/17 11:14:55;;;;;;;1.87;1.50;;;14.80;1.00;;;;;;5060889;28;20225;-70
2022/04/17 11:17:23;;;;;;;2.13;1.30;;;14.90;1.00;;;;;;5062983;28;20286;-71
2022/04/17 11:19:55;;;;;;;1.07;1.03;;;15.00;1.00;;;;;;5066675;28;20202;-71
2022/04/17 11:22:27;;;;;;;1.27;1.17;;;15.50;1.00;;;;;;5066115;28;20280;-71
2022/04/17 11:25:08;;;;;;;1.40;1.30;;;16.00;1.00;;;;;;5058135;28;20672;-71
2022/04/17 11:27:38;;;;;;;2.10;1.53;;;15.30;1.00;;;;;;5059971;28;20272;-71
2022/04/17 11:30:07;;;;;;;1.50;1.40;;;15.30;1.00;;;;;;5060097;28;20294;-71
2022/04/17 11:32:52;;;;;;;2.03;1.58;;;15.60;1.00;;;;;;5057343;28;20298;-71
2022/04/17 11:35:22;;;;;;;2.37;1.60;;;15.10;1.00;;;;;;5060408;28;20653;-71
2022/04/17 11:37:54;;;;;;;1.40;1.30;;;14.90;1.00;;;;;;5057839;28;20675;-71
2022/04/17 11:40:23;;;;;;;4.17;1.40;;;15.00;1.00;;;;;;5057064;28;20658;-71
2022/04/17 11:42:52;;;;;;;1.47;1.20;;;14.90;1.00;;;;;;5057234;28;20241;-71
2022/04/17 11:45:21;;;;;;;2.40;1.50;;;15.20;1.00;;;;;;5058824;28;20198;-71
2022/04/17 11:47:50;;;;;;;1.70;1.60;;;15.50;1.00;;;;;;5057481;28;20253;-71
2022/04/17 11:50:26;;;;;;;2.38;1.65;;;15.30;1.00;;;;;;5059081;28;20751;-71
2022/04/17 11:52:53;;;;;;;1.43;1.33;;;15.10;1.00;;;;;;5061436;28;20245;-72
2022/04/17 11:55:28;;;;;;;1.83;1.70;;;15.30;1.00;;;;;;5057330;28;20245;-73
2022/04/17 11:57:56;;;;;;;2.28;1.60;;;15.30;1.00;;;;;;5059166;28;20340;-72
2022/04/17 12:00:24;;;;;;;2.20;1.65;;;15.40;1.00;;;;;;5057190;28;20211;-71
2022/04/17 12:02:59;;;;;;;2.08;1.58;;;15.40;1.00;;;;;;5059333;28;20315;-71
2022/04/17 12:05:28;;;;;;;1.65;1.55;;;15.50;1.00;;;;;;5054212;28;20260;-71
2022/04/17 12:08:01;;;;;;;1.42;1.30;;;15.30;1.00;;;;;;5062185;28;20664;-71
2022/04/17 12:10:29;;;;;;;2.27;1.70;;;15.20;1.00;;;;;;5063626;28;20218;-71
2022/04/17 12:12:56;;;;;;;2.90;1.73;;;15.50;1.00;;;;;;5057635;28;20200;-71
2022/04/17 12:15:23;;;;;;;1.60;1.50;;;15.40;1.00;;;;;;5057739;28;20653;-71
2022/04/17 12:18:00;;;;;;;3.58;1.90;;;15.20;1.00;;;;;;5057313;28;20272;-71
2022/04/17 12:20:29;;;;;;;2.47;2.20;;;15.10;1.00;;;;;;5062006;28;20257;-72
2022/04/17 12:22:56;;;;;;;3.40;1.73;;;14.90;1.00;;;;;;5058547;28;20272;-71
2022/04/17 12:25:24;;;;;;;2.33;1.90;;;15.20;1.00;;;;;;5056996;28;20214;-71
2022/04/17 12:27:53;;;;;;;3.90;2.30;;;15.60;1.00;;;;;;5058479;28;20294;-71
2022/04/17 12:30:21;;;;;;;1.83;1.73;;;16.40;1.00;;;;;;5057388;28;20638;-71
2022/04/17 12:32:49;;;;;;;2.20;1.70;;;15.90;1.00;;;;;;5057351;28;20267;-71
2022/04/17 12:35:24;;;;;;;1.90;1.70;;;15.70;1.00;;;;;;5062909;28;20221;-72
2022/04/17 12:38:03;;;;;;;2.30;2.10;;;15.40;1.00;;;;;;5056184;28;20649;-72
2022/04/17 12:40:31;;;;;;;3.23;2.20;;;15.00;1.00;;;;;;5057227;28;20277;-71
2022/04/17 12:43:16;;;;;;;3.63;2.67;;;15.00;1.00;;;;;;5057130;28;20723;-71
2022/04/17 12:45:55;;;;;;;3.00;2.50;;;14.90;1.00;;;;;;5057131;28;20526;-71
2022/04/17 12:48:29;;;;;;;3.40;2.50;;;15.40;1.00;;;;;;5062548;28;20545;-71
2022/04/17 12:50:57;;;;;;;4.43;2.10;;;15.30;1.00;;;;;;5052016;28;20443;-71
2022/04/17 12:53:26;;;;;;;2.30;2.10;;;15.60;1.00;;;;;;5065462;28;20714;-72
2022/04/17 12:55:54;;;;;;;2.67;2.30;;;15.70;1.00;;;;;;5056291;28;20463;-71
2022/04/17 12:58:22;;;;;;;3.27;2.57;;;15.50;1.00;;;;;;5066000;28;20274;-71
2022/04/17 13:00:59;;;;;;;2.90;2.70;;;15.10;1.00;;;;;;5069154;28;20705;-71
2022/04/17 13:03:36;;;;;;;3.47;2.40;;;15.20;1.00;;;;;;5067668;28;20280;-71
2022/04/17 13:06:05;;;;;;;4.50;2.80;;;15.30;1.00;;;;;;5061964;28;20233;-71
2022/04/17 13:08:34;;;;;;;2.87;2.57;;;16.00;1.00;;;;;;5063310;28;20591;-71